AFL2427 ULLI-UWLL
Flight info
| Callsign | AFL2427 |
|---|---|
| Flight time | 1h 46m |
| Altitude | 39000 |
| Route | SUGIN1A SUGIN T873 NIRGI T73 DESUD P164 ROKUR T784 OTKOL T787 OKSUD T778 TERDI TERDI1F |
| Aircraft | A20N/M-SDE2E3FGHIRWXY/LB1 |
Departure
| Time | 2026-05-05 18:36 |
|---|---|
| Airport | Pulkovo Airport (ULLI) |
Arrival
| Time | 2026-05-05 20:22 |
|---|---|
| Airport | Ulyanovsk Baratayevka Airport (UWLL) |
| Time | Latitude | Longitude | Altitude | Speed | Heading |
|---|---|---|---|---|---|
| 2026-05-05 18:14 | 59.80156 | 30.26494 | 84 ft | 0 kts | 285° |
| 2026-05-05 18:28 | 59.80168 | 30.26411 | 85 ft | 5 kts | 285° |
| 2026-05-05 18:28 | 59.80197 | 30.26376 | 85 ft | 7 kts | 2° |
| 2026-05-05 18:28 | 59.80268 | 30.26413 | 83 ft | 12 kts | 16° |
| 2026-05-05 18:29 | 59.80359 | 30.26444 | 80 ft | 12 kts | 6° |
| 2026-05-05 18:29 | 59.80435 | 30.26499 | 78 ft | 11 kts | 51° |
| 2026-05-05 18:29 | 59.80428 | 30.26659 | 78 ft | 12 kts | 108° |
| 2026-05-05 18:29 | 59.80402 | 30.26829 | 78 ft | 13 kts | 105° |
| 2026-05-05 18:30 | 59.80376 | 30.27009 | 79 ft | 14 kts | 105° |
| 2026-05-05 18:30 | 59.80345 | 30.27214 | 76 ft | 16 kts | 106° |
| 2026-05-05 18:30 | 59.80312 | 30.27435 | 77 ft | 16 kts | 106° |
| 2026-05-05 18:30 | 59.80280 | 30.27656 | 77 ft | 16 kts | 106° |
| 2026-05-05 18:31 | 59.80244 | 30.27894 | 75 ft | 18 kts | 106° |
| 2026-05-05 18:31 | 59.80207 | 30.28147 | 73 ft | 20 kts | 106° |
| 2026-05-05 18:31 | 59.80167 | 30.28414 | 73 ft | 20 kts | 107° |
| 2026-05-05 18:31 | 59.80128 | 30.28674 | 74 ft | 19 kts | 106° |
| 2026-05-05 18:32 | 59.80088 | 30.28941 | 72 ft | 20 kts | 106° |
| 2026-05-05 18:32 | 59.80048 | 30.29216 | 72 ft | 20 kts | 106° |
| 2026-05-05 18:32 | 59.80008 | 30.29484 | 73 ft | 20 kts | 106° |
| 2026-05-05 18:32 | 59.79972 | 30.29719 | 73 ft | 14 kts | 106° |
| 2026-05-05 18:33 | 59.79942 | 30.29917 | 74 ft | 14 kts | 105° |
| 2026-05-05 18:33 | 59.79972 | 30.30091 | 74 ft | 14 kts | 44° |
| 2026-05-05 18:33 | 59.80003 | 30.30157 | 73 ft | 0 kts | 47° |
| 2026-05-05 18:34 | 59.80013 | 30.30179 | 73 ft | 7 kts | 46° |
| 2026-05-05 18:34 | 59.80057 | 30.30268 | 73 ft | 9 kts | 40° |
| 2026-05-05 18:34 | 59.80117 | 30.30263 | 73 ft | 10 kts | 308° |
| 2026-05-05 18:34 | 59.80136 | 30.30162 | 73 ft | 0 kts | 287° |
| 2026-05-05 18:35 | 59.80141 | 30.30133 | 73 ft | 16 kts | 286° |
| 2026-05-05 18:35 | 59.80255 | 30.29369 | 70 ft | 96 kts | 286° |
| 2026-05-05 18:35 | 59.80502 | 30.27681 | 78 ft | 156 kts | 285° |
| 2026-05-05 18:36 | 59.80804 | 30.25613 | 767 ft | 157 kts | 286° |
| 2026-05-05 18:36 | 59.81082 | 30.23521 | 1504 ft | 162 kts | 285° |
| 2026-05-05 18:36 | 59.81368 | 30.21324 | 2185 ft | 170 kts | 286° |
| 2026-05-05 18:36 | 59.81726 | 30.18983 | 2715 ft | 187 kts | 287° |
| 2026-05-05 18:37 | 59.82121 | 30.16452 | 3233 ft | 204 kts | 287° |
| 2026-05-05 18:37 | 59.82554 | 30.13616 | 3775 ft | 223 kts | 285° |
| 2026-05-05 18:37 | 59.82994 | 30.10706 | 4791 ft | 221 kts | 284° |
| 2026-05-05 18:37 | 59.83420 | 30.07864 | 5748 ft | 220 kts | 282° |
| 2026-05-05 18:38 | 59.83848 | 30.04968 | 6708 ft | 221 kts | 281° |
| 2026-05-05 18:38 | 59.84135 | 30.02044 | 7631 ft | 217 kts | 264° |
| 2026-05-05 18:38 | 59.83722 | 29.99229 | 8569 ft | 214 kts | 240° |
| 2026-05-05 18:38 | 59.82727 | 29.97113 | 9475 ft | 220 kts | 218° |
| 2026-05-05 18:39 | 59.81291 | 29.95937 | 10347 ft | 230 kts | 204° |
| 2026-05-05 18:39 | 59.79771 | 29.95033 | 11142 ft | 233 kts | 205° |
| 2026-05-05 18:39 | 59.78219 | 29.94086 | 11928 ft | 236 kts | 205° |
| 2026-05-05 18:39 | 59.76653 | 29.93226 | 12650 ft | 244 kts | 197° |
| 2026-05-05 18:40 | 59.74865 | 29.93462 | 13115 ft | 279 kts | 172° |
| 2026-05-05 18:40 | 59.73093 | 29.95574 | 13520 ft | 320 kts | 142° |
| 2026-05-05 18:40 | 59.71871 | 29.99490 | 13934 ft | 354 kts | 117° |
| 2026-05-05 18:40 | 59.71138 | 30.04213 | 14456 ft | 369 kts | 110° |
| 2026-05-05 18:41 | 59.70510 | 30.09197 | 15151 ft | 375 kts | 109° |
| 2026-05-05 18:41 | 59.69925 | 30.14157 | 15959 ft | 376 kts | 105° |
| 2026-05-05 18:41 | 59.69563 | 30.19306 | 16664 ft | 383 kts | 98° |
| 2026-05-05 18:41 | 59.69432 | 30.24607 | 17320 ft | 389 kts | 95° |
| 2026-05-05 18:42 | 59.69363 | 30.29973 | 17946 ft | 394 kts | 96° |
| 2026-05-05 18:42 | 59.69139 | 30.35307 | 18562 ft | 396 kts | 101° |
| 2026-05-05 18:42 | 59.68685 | 30.40670 | 19215 ft | 398 kts | 105° |
| 2026-05-05 18:42 | 59.68121 | 30.46008 | 19832 ft | 401 kts | 107° |
| 2026-05-05 18:43 | 59.67525 | 30.51420 | 20436 ft | 406 kts | 107° |
| 2026-05-05 18:43 | 59.66920 | 30.56912 | 21008 ft | 410 kts | 107° |
| 2026-05-05 18:43 | 59.66325 | 30.62387 | 21590 ft | 414 kts | 107° |
| 2026-05-05 18:43 | 59.65721 | 30.67997 | 22172 ft | 418 kts | 107° |
| 2026-05-05 18:44 | 59.65208 | 30.73679 | 22717 ft | 423 kts | 104° |
| 2026-05-05 18:44 | 59.64734 | 30.79438 | 23250 ft | 427 kts | 104° |
| 2026-05-05 18:44 | 59.64268 | 30.85200 | 23764 ft | 431 kts | 104° |
| 2026-05-05 18:44 | 59.63790 | 30.91060 | 24291 ft | 434 kts | 104° |
| 2026-05-05 18:45 | 59.63305 | 30.96924 | 24823 ft | 436 kts | 104° |
| 2026-05-05 18:45 | 59.62813 | 31.02805 | 25358 ft | 439 kts | 104° |
| 2026-05-05 18:45 | 59.62309 | 31.08752 | 25863 ft | 441 kts | 104° |
| 2026-05-05 18:45 | 59.61801 | 31.14713 | 26348 ft | 444 kts | 104° |
| 2026-05-05 18:46 | 59.61283 | 31.20771 | 26827 ft | 447 kts | 104° |
| 2026-05-05 18:46 | 59.60762 | 31.26819 | 27295 ft | 450 kts | 104° |
| 2026-05-05 18:46 | 59.60237 | 31.32899 | 27751 ft | 452 kts | 104° |
| 2026-05-05 18:46 | 59.59709 | 31.38974 | 28210 ft | 455 kts | 104° |
| 2026-05-05 18:47 | 59.59174 | 31.45084 | 28645 ft | 457 kts | 104° |
| 2026-05-05 18:47 | 59.58631 | 31.51231 | 29065 ft | 460 kts | 104° |
| 2026-05-05 18:47 | 59.58076 | 31.57511 | 29498 ft | 462 kts | 104° |
| 2026-05-05 18:47 | 59.57521 | 31.63735 | 29903 ft | 465 kts | 104° |
| 2026-05-05 18:48 | 59.56966 | 31.69943 | 30267 ft | 467 kts | 104° |
| 2026-05-05 18:48 | 59.56400 | 31.76242 | 30652 ft | 469 kts | 105° |
| 2026-05-05 18:48 | 59.55826 | 31.82571 | 30995 ft | 471 kts | 105° |
| 2026-05-05 18:48 | 59.55250 | 31.88880 | 31328 ft | 473 kts | 104° |
| 2026-05-05 18:49 | 59.54646 | 31.95294 | 31652 ft | 474 kts | 107° |
| 2026-05-05 18:49 | 59.53807 | 32.01488 | 31955 ft | 471 kts | 114° |
| 2026-05-05 18:49 | 59.52611 | 32.07477 | 32266 ft | 467 kts | 121° |
| 2026-05-05 18:49 | 59.51105 | 32.13035 | 32556 ft | 463 kts | 128° |
| 2026-05-05 18:50 | 59.49305 | 32.18177 | 32843 ft | 458 kts | 135° |
| 2026-05-05 18:50 | 59.47225 | 32.22882 | 33130 ft | 453 kts | 141° |
| 2026-05-05 18:50 | 59.45006 | 32.27237 | 33405 ft | 452 kts | 143° |
| 2026-05-05 18:50 | 59.42790 | 32.31483 | 33681 ft | 453 kts | 143° |
| 2026-05-05 18:51 | 59.40539 | 32.35797 | 34003 ft | 452 kts | 142° |
| 2026-05-05 18:51 | 59.38303 | 32.40097 | 34323 ft | 452 kts | 142° |
| 2026-05-05 18:51 | 59.36065 | 32.44416 | 34641 ft | 451 kts | 142° |
| 2026-05-05 18:51 | 59.33841 | 32.48711 | 34874 ft | 450 kts | 142° |
| 2026-05-05 18:52 | 59.31648 | 32.52942 | 35068 ft | 449 kts | 142° |
| 2026-05-05 18:52 | 59.29429 | 32.57222 | 35240 ft | 450 kts | 142° |
| 2026-05-05 18:52 | 59.27195 | 32.61521 | 35422 ft | 449 kts | 142° |
| 2026-05-05 18:52 | 59.24971 | 32.65795 | 35588 ft | 450 kts | 143° |
| 2026-05-05 18:53 | 59.22747 | 32.70074 | 35758 ft | 449 kts | 142° |
| 2026-05-05 18:53 | 59.20535 | 32.74327 | 35939 ft | 448 kts | 142° |
| 2026-05-05 18:53 | 59.18349 | 32.78514 | 36085 ft | 448 kts | 142° |
| 2026-05-05 18:53 | 59.16126 | 32.82761 | 36288 ft | 448 kts | 142° |
| 2026-05-05 18:54 | 59.13898 | 32.87006 | 36499 ft | 448 kts | 142° |
| 2026-05-05 18:54 | 59.11682 | 32.91218 | 36711 ft | 447 kts | 142° |
| 2026-05-05 18:54 | 59.09477 | 32.95397 | 36929 ft | 447 kts | 142° |
| 2026-05-05 18:54 | 59.07241 | 32.99625 | 37122 ft | 447 kts | 142° |
| 2026-05-05 18:55 | 59.05045 | 33.03769 | 37314 ft | 447 kts | 142° |
| 2026-05-05 18:55 | 59.02831 | 33.07941 | 37490 ft | 447 kts | 142° |
| 2026-05-05 18:55 | 58.98345 | 33.16368 | 37612 ft | 453 kts | 142° |
| 2026-05-05 18:56 | 58.93809 | 33.24854 | 37723 ft | 459 kts | 142° |
| 2026-05-05 18:56 | 58.89199 | 33.33458 | 37819 ft | 464 kts | 141° |
| 2026-05-05 18:57 | 58.84536 | 33.42083 | 37873 ft | 469 kts | 142° |
| 2026-05-05 18:57 | 58.79813 | 33.50797 | 37928 ft | 474 kts | 141° |
| 2026-05-05 18:58 | 58.75035 | 33.59587 | 37936 ft | 479 kts | 141° |
| 2026-05-05 18:58 | 58.70213 | 33.68441 | 37934 ft | 484 kts | 142° |
| 2026-05-05 18:59 | 58.65358 | 33.77345 | 37879 ft | 488 kts | 142° |
| 2026-05-05 18:59 | 58.60446 | 33.86302 | 37910 ft | 490 kts | 142° |
| 2026-05-05 19:00 | 58.55530 | 33.95214 | 38026 ft | 489 kts | 142° |
| 2026-05-05 19:00 | 58.50600 | 34.04113 | 38121 ft | 488 kts | 142° |
| 2026-05-05 19:01 | 58.45682 | 34.12951 | 38171 ft | 489 kts | 142° |
| 2026-05-05 19:01 | 58.40751 | 34.21778 | 38216 ft | 489 kts | 142° |
| 2026-05-05 19:02 | 58.35784 | 34.30630 | 38280 ft | 489 kts | 142° |
| 2026-05-05 19:02 | 58.30845 | 34.39397 | 38328 ft | 489 kts | 142° |
| 2026-05-05 19:03 | 58.25877 | 34.48177 | 38367 ft | 489 kts | 142° |
| 2026-05-05 19:03 | 58.20919 | 34.56897 | 38426 ft | 488 kts | 143° |
| 2026-05-05 19:04 | 58.15769 | 34.65181 | 38505 ft | 486 kts | 146° |
| 2026-05-05 19:04 | 58.10630 | 34.73360 | 38551 ft | 485 kts | 145° |
| 2026-05-05 19:05 | 58.05480 | 34.81510 | 38567 ft | 485 kts | 146° |
| 2026-05-05 19:05 | 58.00324 | 34.89615 | 38579 ft | 485 kts | 145° |
| 2026-05-05 19:06 | 57.95135 | 34.97734 | 38621 ft | 486 kts | 145° |
| 2026-05-05 19:06 | 57.89961 | 35.05802 | 38674 ft | 486 kts | 145° |
| 2026-05-05 19:07 | 57.84743 | 35.13866 | 38720 ft | 486 kts | 145° |
| 2026-05-05 19:07 | 57.79561 | 35.21856 | 38780 ft | 486 kts | 145° |
| 2026-05-05 19:08 | 57.74358 | 35.29868 | 38790 ft | 486 kts | 145° |
| 2026-05-05 19:08 | 57.69183 | 35.37808 | 38792 ft | 485 kts | 145° |
| 2026-05-05 19:09 | 57.64197 | 35.46438 | 38794 ft | 491 kts | 136° |
| 2026-05-05 19:09 | 57.60069 | 35.56532 | 38781 ft | 498 kts | 125° |
| 2026-05-05 19:10 | 57.56914 | 35.68022 | 38806 ft | 504 kts | 115° |
| 2026-05-05 19:10 | 57.54507 | 35.80256 | 38782 ft | 505 kts | 112° |
| 2026-05-05 19:11 | 57.52118 | 35.92579 | 38785 ft | 506 kts | 113° |
| 2026-05-05 19:11 | 57.49704 | 36.04711 | 38800 ft | 506 kts | 113° |
| 2026-05-05 19:12 | 57.47264 | 36.16898 | 38773 ft | 505 kts | 113° |
| 2026-05-05 19:12 | 57.44826 | 36.29033 | 38791 ft | 504 kts | 113° |
| 2026-05-05 19:13 | 57.42367 | 36.41187 | 38779 ft | 503 kts | 113° |
| 2026-05-05 19:13 | 57.39903 | 36.53285 | 38812 ft | 503 kts | 113° |
| 2026-05-05 19:14 | 57.37434 | 36.65322 | 38781 ft | 501 kts | 114° |
| 2026-05-05 19:14 | 57.34978 | 36.77274 | 38770 ft | 501 kts | 114° |
| 2026-05-05 19:15 | 57.32494 | 36.89270 | 38804 ft | 500 kts | 114° |
| 2026-05-05 19:15 | 57.29993 | 37.01256 | 38796 ft | 500 kts | 114° |
| 2026-05-05 19:16 | 57.27503 | 37.13118 | 38794 ft | 500 kts | 114° |
| 2026-05-05 19:16 | 57.24983 | 37.25047 | 38789 ft | 500 kts | 114° |
| 2026-05-05 19:17 | 57.22458 | 37.36929 | 38808 ft | 500 kts | 114° |
| 2026-05-05 19:17 | 57.19908 | 37.48835 | 38808 ft | 500 kts | 114° |
| 2026-05-05 19:18 | 57.17387 | 37.60660 | 38784 ft | 500 kts | 112° |
| 2026-05-05 19:18 | 57.15337 | 37.72926 | 38814 ft | 502 kts | 107° |
| 2026-05-05 19:19 | 57.13583 | 37.85256 | 38805 ft | 503 kts | 107° |
| 2026-05-05 19:19 | 57.11796 | 37.97677 | 38801 ft | 503 kts | 107° |
| 2026-05-05 19:20 | 57.10001 | 38.10001 | 38817 ft | 503 kts | 108° |
| 2026-05-05 19:20 | 57.08177 | 38.22384 | 38818 ft | 502 kts | 108° |
| 2026-05-05 19:21 | 57.06353 | 38.34670 | 38830 ft | 503 kts | 108° |
| 2026-05-05 19:21 | 57.04504 | 38.47041 | 38824 ft | 502 kts | 108° |
| 2026-05-05 19:22 | 57.02652 | 38.59338 | 38827 ft | 502 kts | 108° |
| 2026-05-05 19:22 | 57.00798 | 38.71555 | 38817 ft | 502 kts | 108° |
| 2026-05-05 19:23 | 56.98918 | 38.83876 | 38829 ft | 502 kts | 108° |
| 2026-05-05 19:23 | 56.97035 | 38.96122 | 38815 ft | 501 kts | 108° |
| 2026-05-05 19:24 | 56.95149 | 39.08280 | 38850 ft | 500 kts | 108° |
| 2026-05-05 19:24 | 56.93234 | 39.20510 | 38849 ft | 500 kts | 108° |
| 2026-05-05 19:25 | 56.91320 | 39.32663 | 38837 ft | 501 kts | 108° |
| 2026-05-05 19:25 | 56.89377 | 39.44870 | 38839 ft | 500 kts | 109° |
| 2026-05-05 19:26 | 56.87415 | 39.56957 | 38841 ft | 500 kts | 108° |
| 2026-05-05 19:26 | 56.85452 | 39.69111 | 38836 ft | 501 kts | 109° |
| 2026-05-05 19:27 | 56.83481 | 39.81282 | 38841 ft | 501 kts | 109° |
| 2026-05-05 19:27 | 56.81506 | 39.93408 | 38844 ft | 501 kts | 109° |
| 2026-05-05 19:28 | 56.79524 | 40.05545 | 38836 ft | 501 kts | 109° |
| 2026-05-05 19:28 | 56.77538 | 40.17622 | 38828 ft | 501 kts | 109° |
| 2026-05-05 19:29 | 56.75541 | 40.29682 | 38828 ft | 500 kts | 109° |
| 2026-05-05 19:29 | 56.73517 | 40.41808 | 38826 ft | 500 kts | 109° |
| 2026-05-05 19:30 | 56.71503 | 40.53804 | 38827 ft | 500 kts | 109° |
| 2026-05-05 19:30 | 56.69459 | 40.65878 | 38837 ft | 500 kts | 109° |
| 2026-05-05 19:31 | 56.67416 | 40.77901 | 38832 ft | 500 kts | 109° |
| 2026-05-05 19:31 | 56.65364 | 40.89877 | 38833 ft | 499 kts | 109° |
| 2026-05-05 19:32 | 56.63078 | 41.01762 | 38835 ft | 497 kts | 115° |
| 2026-05-05 19:32 | 56.60093 | 41.12989 | 38833 ft | 495 kts | 122° |
| 2026-05-05 19:33 | 56.56440 | 41.23375 | 38834 ft | 493 kts | 129° |
| 2026-05-05 19:33 | 56.52324 | 41.33255 | 38848 ft | 492 kts | 130° |
| 2026-05-05 19:34 | 56.48199 | 41.43115 | 38850 ft | 491 kts | 130° |
| 2026-05-05 19:35 | 56.42547 | 41.56618 | 38852 ft | 491 kts | 129° |
| 2026-05-05 19:35 | 56.41188 | 41.59855 | 38855 ft | 491 kts | 129° |
| 2026-05-05 19:36 | 56.37072 | 41.69651 | 38855 ft | 491 kts | 130° |
| 2026-05-05 19:36 | 56.32978 | 41.79373 | 38853 ft | 491 kts | 130° |
| 2026-05-05 19:37 | 56.28849 | 41.89114 | 38859 ft | 490 kts | 130° |
| 2026-05-05 19:37 | 56.24727 | 41.98789 | 38860 ft | 490 kts | 130° |
| 2026-05-05 19:38 | 56.20564 | 42.08539 | 38837 ft | 489 kts | 129° |
| 2026-05-05 19:38 | 56.16753 | 42.18597 | 38844 ft | 491 kts | 125° |
| 2026-05-05 19:39 | 56.13060 | 42.28762 | 38842 ft | 490 kts | 126° |
| 2026-05-05 19:39 | 56.09289 | 42.38830 | 38857 ft | 490 kts | 126° |
| 2026-05-05 19:40 | 56.05483 | 42.48890 | 38831 ft | 490 kts | 126° |
| 2026-05-05 19:40 | 56.01675 | 42.58928 | 38861 ft | 489 kts | 126° |
| 2026-05-05 19:41 | 55.97867 | 42.68942 | 38846 ft | 488 kts | 127° |
| 2026-05-05 19:41 | 55.94082 | 42.78888 | 38843 ft | 488 kts | 127° |
| 2026-05-05 19:42 | 55.90255 | 42.88878 | 38844 ft | 487 kts | 127° |
| 2026-05-05 19:42 | 55.86440 | 42.98731 | 38859 ft | 486 kts | 127° |
| 2026-05-05 19:43 | 55.82606 | 43.08585 | 38862 ft | 485 kts | 127° |
| 2026-05-05 19:43 | 55.78801 | 43.18366 | 38875 ft | 485 kts | 127° |
| 2026-05-05 19:44 | 55.74969 | 43.28191 | 38873 ft | 484 kts | 126° |
| 2026-05-05 19:44 | 55.71162 | 43.37918 | 38877 ft | 484 kts | 126° |
| 2026-05-05 19:45 | 55.67336 | 43.47656 | 38876 ft | 483 kts | 126° |
| 2026-05-05 19:45 | 55.63502 | 43.57375 | 38881 ft | 483 kts | 126° |
| 2026-05-05 19:46 | 55.59654 | 43.67096 | 38877 ft | 484 kts | 127° |
| 2026-05-05 19:46 | 55.55816 | 43.76782 | 38875 ft | 482 kts | 127° |
| 2026-05-05 19:47 | 55.51970 | 43.86436 | 38873 ft | 483 kts | 127° |
| 2026-05-05 19:47 | 55.48123 | 43.96040 | 38870 ft | 482 kts | 127° |
| 2026-05-05 19:48 | 55.44262 | 44.05642 | 38872 ft | 482 kts | 127° |
| 2026-05-05 19:48 | 55.40385 | 44.15243 | 38867 ft | 483 kts | 127° |
| 2026-05-05 19:49 | 55.36519 | 44.24779 | 38868 ft | 481 kts | 127° |
| 2026-05-05 19:49 | 55.32656 | 44.34275 | 38865 ft | 480 kts | 127° |
| 2026-05-05 19:50 | 55.28766 | 44.43799 | 38863 ft | 480 kts | 127° |
| 2026-05-05 19:50 | 55.24879 | 44.53275 | 38856 ft | 480 kts | 127° |
| 2026-05-05 19:51 | 55.20989 | 44.62721 | 38855 ft | 480 kts | 127° |
| 2026-05-05 19:51 | 55.17112 | 44.72122 | 38860 ft | 480 kts | 127° |
| 2026-05-05 19:52 | 55.13224 | 44.81520 | 38751 ft | 480 kts | 127° |
| 2026-05-05 19:52 | 55.11272 | 44.86219 | 38409 ft | 472 kts | 127° |
| 2026-05-05 19:52 | 55.09370 | 44.90791 | 38021 ft | 464 kts | 128° |
| 2026-05-05 19:52 | 55.07482 | 44.95316 | 37494 ft | 459 kts | 128° |
| 2026-05-05 19:53 | 55.05617 | 44.99777 | 36926 ft | 456 kts | 128° |
| 2026-05-05 19:53 | 55.03757 | 45.04210 | 36398 ft | 454 kts | 128° |
| 2026-05-05 19:53 | 55.01906 | 45.08617 | 35836 ft | 453 kts | 128° |
| 2026-05-05 19:53 | 55.00070 | 45.12977 | 35240 ft | 453 kts | 128° |
| 2026-05-05 19:54 | 54.98199 | 45.17418 | 34530 ft | 454 kts | 128° |
| 2026-05-05 19:54 | 54.96336 | 45.21830 | 33784 ft | 454 kts | 127° |
| 2026-05-05 19:54 | 54.94504 | 45.26161 | 33127 ft | 452 kts | 127° |
| 2026-05-05 19:54 | 54.92634 | 45.30576 | 32555 ft | 448 kts | 127° |
| 2026-05-05 19:55 | 54.90813 | 45.34867 | 32135 ft | 441 kts | 127° |
| 2026-05-05 19:55 | 54.89008 | 45.39107 | 31706 ft | 435 kts | 127° |
| 2026-05-05 19:55 | 54.87222 | 45.43268 | 31285 ft | 430 kts | 127° |
| 2026-05-05 19:55 | 54.85453 | 45.47387 | 30849 ft | 425 kts | 127° |
| 2026-05-05 19:56 | 54.83706 | 45.51454 | 30414 ft | 421 kts | 127° |
| 2026-05-05 19:56 | 54.81973 | 45.55488 | 30007 ft | 416 kts | 127° |
| 2026-05-05 19:56 | 54.80261 | 45.59474 | 29574 ft | 412 kts | 127° |
| 2026-05-05 19:56 | 54.78576 | 45.63394 | 29150 ft | 408 kts | 127° |
| 2026-05-05 19:57 | 54.76887 | 45.67324 | 28730 ft | 404 kts | 128° |
| 2026-05-05 19:57 | 54.75229 | 45.71188 | 28297 ft | 401 kts | 128° |
| 2026-05-05 19:57 | 54.73584 | 45.75013 | 27865 ft | 398 kts | 128° |
| 2026-05-05 19:57 | 54.71941 | 45.78826 | 27449 ft | 395 kts | 128° |
| 2026-05-05 19:58 | 54.70304 | 45.82615 | 27031 ft | 392 kts | 128° |
| 2026-05-05 19:58 | 54.68676 | 45.86372 | 26634 ft | 388 kts | 128° |
| 2026-05-05 19:58 | 54.67089 | 45.90032 | 26233 ft | 385 kts | 128° |
| 2026-05-05 19:58 | 54.65495 | 45.93702 | 25832 ft | 382 kts | 128° |
| 2026-05-05 19:59 | 54.63911 | 45.97341 | 25420 ft | 380 kts | 128° |
| 2026-05-05 19:59 | 54.62314 | 46.01006 | 24997 ft | 378 kts | 128° |
| 2026-05-05 19:59 | 54.60760 | 46.04563 | 24593 ft | 375 kts | 128° |
| 2026-05-05 19:59 | 54.59201 | 46.08129 | 24194 ft | 373 kts | 127° |
| 2026-05-05 20:00 | 54.57650 | 46.11672 | 23808 ft | 371 kts | 127° |
| 2026-05-05 20:00 | 54.56087 | 46.15237 | 23416 ft | 369 kts | 127° |
| 2026-05-05 20:00 | 54.54559 | 46.18717 | 23017 ft | 367 kts | 127° |
| 2026-05-05 20:00 | 54.53030 | 46.22198 | 22626 ft | 366 kts | 127° |
| 2026-05-05 20:01 | 54.51506 | 46.25660 | 22244 ft | 364 kts | 127° |
| 2026-05-05 20:01 | 54.49987 | 46.29104 | 21868 ft | 362 kts | 127° |
| 2026-05-05 20:01 | 54.48459 | 46.32567 | 21486 ft | 360 kts | 127° |
| 2026-05-05 20:01 | 54.46955 | 46.35970 | 21113 ft | 358 kts | 127° |
| 2026-05-05 20:02 | 54.45468 | 46.39329 | 20751 ft | 355 kts | 127° |
| 2026-05-05 20:02 | 54.43984 | 46.42677 | 20386 ft | 353 kts | 127° |
| 2026-05-05 20:02 | 54.42509 | 46.45999 | 20018 ft | 351 kts | 127° |
| 2026-05-05 20:02 | 54.41038 | 46.49308 | 19638 ft | 349 kts | 127° |
| 2026-05-05 20:03 | 54.39577 | 46.52592 | 19283 ft | 346 kts | 127° |
| 2026-05-05 20:03 | 54.38126 | 46.55849 | 18959 ft | 343 kts | 127° |
| 2026-05-05 20:03 | 54.36775 | 46.59159 | 18572 ft | 341 kts | 115° |
| 2026-05-05 20:03 | 54.36213 | 46.63072 | 18095 ft | 340 kts | 87° |
| 2026-05-05 20:04 | 54.36496 | 46.67080 | 17613 ft | 340 kts | 78° |
| 2026-05-05 20:04 | 54.36951 | 46.71025 | 17105 ft | 342 kts | 78° |
| 2026-05-05 20:04 | 54.37391 | 46.75011 | 16581 ft | 343 kts | 79° |
| 2026-05-05 20:04 | 54.37790 | 46.79049 | 16053 ft | 345 kts | 80° |
| 2026-05-05 20:05 | 54.38152 | 46.83079 | 15545 ft | 345 kts | 81° |
| 2026-05-05 20:05 | 54.38493 | 46.87141 | 15111 ft | 343 kts | 82° |
| 2026-05-05 20:05 | 54.38817 | 46.91179 | 14702 ft | 340 kts | 82° |
| 2026-05-05 20:05 | 54.39123 | 46.95119 | 14294 ft | 337 kts | 82° |
| 2026-05-05 20:06 | 54.39427 | 46.99102 | 13900 ft | 334 kts | 82° |
| 2026-05-05 20:06 | 54.39721 | 47.03012 | 13534 ft | 331 kts | 82° |
| 2026-05-05 20:06 | 54.40012 | 47.06905 | 13171 ft | 327 kts | 82° |
| 2026-05-05 20:06 | 54.40297 | 47.10737 | 12806 ft | 324 kts | 82° |
| 2026-05-05 20:07 | 54.40581 | 47.14572 | 12434 ft | 321 kts | 82° |
| 2026-05-05 20:07 | 54.40858 | 47.18324 | 12073 ft | 319 kts | 82° |
| 2026-05-05 20:07 | 54.41133 | 47.22080 | 11707 ft | 316 kts | 82° |
| 2026-05-05 20:07 | 54.41402 | 47.25774 | 11351 ft | 314 kts | 82° |
| 2026-05-05 20:08 | 54.41673 | 47.29489 | 10977 ft | 312 kts | 82° |
| 2026-05-05 20:08 | 54.41936 | 47.33126 | 10622 ft | 309 kts | 82° |
| 2026-05-05 20:08 | 54.42199 | 47.36778 | 10271 ft | 307 kts | 82° |
| 2026-05-05 20:08 | 54.42459 | 47.40403 | 9915 ft | 305 kts | 82° |
| 2026-05-05 20:09 | 54.42710 | 47.43935 | 9773 ft | 294 kts | 82° |
| 2026-05-05 20:09 | 54.42954 | 47.47355 | 9438 ft | 292 kts | 82° |
| 2026-05-05 20:09 | 54.43197 | 47.50791 | 9116 ft | 289 kts | 82° |
| 2026-05-05 20:09 | 54.43436 | 47.54189 | 8797 ft | 287 kts | 82° |
| 2026-05-05 20:10 | 54.43673 | 47.57564 | 8470 ft | 285 kts | 82° |
| 2026-05-05 20:10 | 54.43909 | 47.60944 | 8149 ft | 283 kts | 82° |
| 2026-05-05 20:10 | 54.44141 | 47.64274 | 7839 ft | 281 kts | 82° |
| 2026-05-05 20:10 | 54.44370 | 47.67591 | 7534 ft | 278 kts | 83° |
| 2026-05-05 20:11 | 54.44593 | 47.70850 | 7236 ft | 276 kts | 83° |
| 2026-05-05 20:11 | 54.44817 | 47.74128 | 6931 ft | 274 kts | 83° |
| 2026-05-05 20:11 | 54.45036 | 47.77347 | 6630 ft | 272 kts | 83° |
| 2026-05-05 20:11 | 54.45253 | 47.80540 | 6331 ft | 271 kts | 83° |
| 2026-05-05 20:12 | 54.45470 | 47.83746 | 6030 ft | 269 kts | 83° |
| 2026-05-05 20:12 | 54.45684 | 47.86914 | 5739 ft | 268 kts | 83° |
| 2026-05-05 20:12 | 54.45898 | 47.90094 | 5434 ft | 267 kts | 83° |
| 2026-05-05 20:12 | 54.46107 | 47.93216 | 5140 ft | 266 kts | 83° |
| 2026-05-05 20:13 | 54.46317 | 47.96375 | 4849 ft | 265 kts | 83° |
| 2026-05-05 20:13 | 54.46524 | 47.99493 | 4558 ft | 264 kts | 83° |
| 2026-05-05 20:13 | 54.46732 | 48.02622 | 4265 ft | 263 kts | 83° |
| 2026-05-05 20:13 | 54.46936 | 48.05721 | 3970 ft | 261 kts | 83° |
| 2026-05-05 20:14 | 54.47139 | 48.08808 | 3685 ft | 258 kts | 83° |
| 2026-05-05 20:14 | 54.47337 | 48.11827 | 3405 ft | 255 kts | 83° |
| 2026-05-05 20:14 | 54.47533 | 48.14834 | 3126 ft | 253 kts | 84° |
| 2026-05-05 20:14 | 54.47729 | 48.17838 | 2848 ft | 250 kts | 84° |
| 2026-05-05 20:15 | 54.47921 | 48.20784 | 2578 ft | 247 kts | 84° |
| 2026-05-05 20:15 | 54.48077 | 48.23684 | 2348 ft | 242 kts | 92° |
| 2026-05-05 20:15 | 54.47739 | 48.26393 | 2298 ft | 226 kts | 118° |
| 2026-05-05 20:15 | 54.46957 | 48.28708 | 2308 ft | 223 kts | 126° |
| 2026-05-05 20:16 | 54.46119 | 48.30887 | 2296 ft | 211 kts | 127° |
| 2026-05-05 20:16 | 54.45322 | 48.32952 | 2302 ft | 205 kts | 126° |
| 2026-05-05 20:16 | 54.44548 | 48.34993 | 2308 ft | 205 kts | 126° |
| 2026-05-05 20:16 | 54.43780 | 48.37055 | 2308 ft | 205 kts | 125° |
| 2026-05-05 20:17 | 54.42963 | 48.39039 | 2099 ft | 204 kts | 143° |
| 2026-05-05 20:17 | 54.41763 | 48.39968 | 2021 ft | 186 kts | 182° |
| 2026-05-05 20:17 | 54.40575 | 48.39380 | 2011 ft | 179 kts | 221° |
| 2026-05-05 20:17 | 54.39733 | 48.37897 | 2095 ft | 165 kts | 230° |
| 2026-05-05 20:18 | 54.39059 | 48.36497 | 2032 ft | 142 kts | 229° |
| 2026-05-05 20:18 | 54.38415 | 48.35378 | 1999 ft | 127 kts | 224° |
| 2026-05-05 20:18 | 54.37730 | 48.34406 | 2004 ft | 125 kts | 220° |
| 2026-05-05 20:18 | 54.37047 | 48.33516 | 2008 ft | 124 kts | 219° |
| 2026-05-05 20:19 | 54.36346 | 48.32647 | 2010 ft | 124 kts | 217° |
| 2026-05-05 20:19 | 54.35625 | 48.31817 | 2007 ft | 124 kts | 216° |
| 2026-05-05 20:19 | 54.34900 | 48.31018 | 1877 ft | 124 kts | 215° |
| 2026-05-05 20:19 | 54.34169 | 48.30233 | 1703 ft | 124 kts | 214° |
| 2026-05-05 20:20 | 54.33441 | 48.29468 | 1527 ft | 123 kts | 212° |
| 2026-05-05 20:20 | 54.32718 | 48.28682 | 1352 ft | 123 kts | 214° |
| 2026-05-05 20:20 | 54.31995 | 48.27903 | 1195 ft | 123 kts | 211° |
| 2026-05-05 20:20 | 54.31281 | 48.27132 | 1050 ft | 122 kts | 213° |
| 2026-05-05 20:21 | 54.30568 | 48.26339 | 910 ft | 122 kts | 211° |
| 2026-05-05 20:21 | 54.29843 | 48.25591 | 748 ft | 122 kts | 211° |
| 2026-05-05 20:21 | 54.29125 | 48.24817 | 575 ft | 122 kts | 210° |
| 2026-05-05 20:21 | 54.28401 | 48.24049 | 420 ft | 122 kts | 210° |
| 2026-05-05 20:22 | 54.27738 | 48.23344 | 391 ft | 90 kts | 212° |
| 2026-05-05 20:22 | 54.27353 | 48.22916 | 405 ft | 49 kts | 210° |
| 2026-05-05 20:22 | 54.27140 | 48.22723 | 412 ft | 11 kts | 182° |
| 2026-05-05 20:22 | 54.27132 | 48.22665 | 413 ft | 8 kts | 359° |
| 2026-05-05 20:23 | 54.27304 | 48.22869 | 406 ft | 58 kts | 32° |
| 2026-05-05 20:23 | 54.27641 | 48.23232 | 396 ft | 56 kts | 31° |
| 2026-05-05 20:23 | 54.27975 | 48.23592 | 381 ft | 56 kts | 32° |
| 2026-05-05 20:23 | 54.28209 | 48.23838 | 369 ft | 20 kts | 33° |
| 2026-05-05 20:24 | 54.28290 | 48.23887 | 367 ft | 12 kts | 321° |
| 2026-05-05 20:24 | 54.28339 | 48.23757 | 367 ft | 13 kts | 302° |
| 2026-05-05 20:24 | 54.28392 | 48.23611 | 365 ft | 15 kts | 302° |
| 2026-05-05 20:24 | 54.28450 | 48.23454 | 364 ft | 16 kts | 301° |
| 2026-05-05 20:25 | 54.28500 | 48.23274 | 363 ft | 17 kts | 294° |
| 2026-05-05 20:25 | 54.28553 | 48.23122 | 361 ft | 8 kts | 300° |
| 2026-05-05 20:25 | 54.28610 | 48.23103 | 359 ft | 7 kts | 30° |
| 2026-05-05 20:25 | 54.28634 | 48.23178 | 358 ft | 8 kts | 107° |
| 2026-05-05 20:26 | 54.28621 | 48.23222 | 359 ft | 0 kts | 121° |